Portada
METAR-TAF:

METAR-TAF

Aeroports :

Txernivtsí, Ucraïna

latitud: 48-15-36N, longitud: 025-58-54E, altitud: 252 m

Observació

L'informe es va fer fa 9 hores i 28 minuts, a les 20:30 UTC
Vent 2 kt del Oest/Sud-Oest
Temperatura 11°C
Humitat 94%
Pressió 1006 hPa
Visibilitat 10 km o més
Núvols disperses , Cumulonimbus.
xàfecs de pluja

METAR: UKLN 032030Z 25001MPS 9999 -SHRA SCT///CB 11/10 Q1006 R15/290260 NOSIG

Hora: 08:58 (05:58 UTC)

Pronòstic

L'informe es va fer fa 9 hores i 53 minuts, a les 20:05 UTC
Pronòstic vàlid del 03 a les 21 UTC al 04 a les 06 UTC
Vent 2 kt amb direcció variable
Visibilitat 10 km o més
Cel ennuvolat a una alçada de 2000 ft
Temporalment
l' 03 a les 21 UTC al 04 a les 03 UTC
Vent 12 kt del Sud-Oest
Visibilitat: 3000 m
Cel ennuvolat a una alçada de 1000 ft
Cel ennuvolat a una alçada de 2000 ft, Cumulonimbus.
xàfecs de pluja

TAF: UKLN 032005Z 0321/0406 VRB01MPS 9999 BKN020 TEMPO 0321/0403 22006MPS 3000 -SHRA BKN010 BKN020CB

Observacions i pronòstics meteorològics de més de 4000 aeroports (METAR i TAF).

Les estacions disponibles són els punts grocs i vermells al mapa.

Posi el ratolí al punt desitjat per veure el nom de l'estació.

Feu clic per veure les observacions i els pronòstics meteorològics.

Per canviar el mapa: feu clic els botons verds amb una creu de color negre per apropar; al botó verd amb un guió per allunyar la imatge; o en les fletxes verdes per a mapes adjacents.


METAR-TAF: